createdAt,value
2022-09-02T00:00:47.654Z,0.20
2022-09-02T00:03:14.717Z,0.30
2022-09-02T00:05:41.582Z,0.20
2022-09-02T00:08:08.729Z,0.10
2022-09-02T00:10:40.359Z,0.20
2022-09-02T00:13:07.766Z,0.10
2022-09-02T00:15:34.134Z,0.10
2022-09-02T00:18:01.259Z,0.10
2022-09-02T00:20:28.297Z,0.13
2022-09-02T00:22:54.778Z,0.30
2022-09-02T00:25:21.194Z,0.20
2022-09-02T00:27:47.648Z,0.20
2022-09-02T00:30:14.495Z,0.20
2022-09-02T00:32:41.409Z,0.30
2022-09-02T00:35:08.549Z,0.20
2022-09-02T00:37:34.874Z,0.20
2022-09-02T00:40:01.565Z,0.20
2022-09-02T00:42:28.129Z,0.10
2022-09-02T00:44:54.626Z,0.30
2022-09-02T00:47:22.105Z,0.25
2022-09-02T00:49:50.186Z,0.20
2022-09-02T00:52:42.733Z,0.20
2022-09-02T00:55:15.509Z,0.20
2022-09-02T00:57:44.293Z,0.20
2022-09-02T01:00:21.646Z,0.20
2022-09-02T01:02:50.224Z,0.10
2022-09-02T01:05:17.512Z,0.10
2022-09-02T01:07:44.907Z,0.10
2022-09-02T01:10:14.438Z,0.10
2022-09-02T01:12:41.221Z,0.20
2022-09-02T01:15:09.263Z,0.20
2022-09-02T01:17:37.460Z,0.20
2022-09-02T01:20:11.853Z,0.20
2022-09-02T01:22:39.164Z,0.20
2022-09-02T01:25:08.219Z,0.20
2022-09-02T01:27:35.283Z,0.20
2022-09-02T01:30:01.638Z,0.20
2022-09-02T01:32:29.035Z,0.32
2022-09-02T01:34:56.043Z,0.20
2022-09-02T01:37:22.611Z,0.20
2022-09-02T01:39:49.592Z,0.15
2022-09-02T01:42:16.261Z,0.15
2022-09-02T01:44:45.247Z,0.10
2022-09-02T01:47:15.825Z,0.30
2022-09-02T01:49:42.401Z,0.20
2022-09-02T01:52:09.214Z,0.20
2022-09-02T01:54:35.778Z,0.28
2022-09-02T01:57:02.258Z,0.10
2022-09-02T01:59:28.723Z,0.10
2022-09-02T02:01:55.181Z,0.20
2022-09-02T02:04:24.797Z,0.25
2022-09-02T02:06:52.303Z,0.20
2022-09-02T02:09:19.814Z,0.20
2022-09-02T02:11:46.709Z,0.20
2022-09-02T02:14:13.165Z,0.30
2022-09-02T02:16:39.549Z,0.20
2022-09-02T02:19:06.064Z,0.20
2022-09-02T02:21:33.288Z,0.20
2022-09-02T02:24:02.356Z,0.20
2022-09-02T02:26:29.190Z,0.10
2022-09-02T02:28:55.758Z,0.20
2022-09-02T02:31:22.358Z,0.30
2022-09-02T02:33:48.739Z,0.20
2022-09-02T02:36:15.094Z,0.30
2022-09-02T02:38:41.864Z,0.30
2022-09-02T02:41:09.697Z,0.25
2022-09-02T02:43:36.901Z,0.17
2022-09-02T02:46:03.697Z,0.20
2022-09-02T02:48:30.796Z,0.20
2022-09-02T02:50:57.249Z,0.20
2022-09-02T02:53:23.755Z,0.10
2022-09-02T02:55:51.535Z,0.20
2022-09-02T02:58:18.153Z,0.20
2022-09-02T03:00:45.472Z,0.38
2022-09-02T03:03:12.034Z,0.25
2022-09-02T03:05:38.916Z,0.30
2022-09-02T03:08:06.015Z,0.40
2022-09-02T03:10:32.789Z,0.30
2022-09-02T03:12:59.865Z,0.50
2022-09-02T03:15:26.845Z,0.30
2022-09-02T03:17:54.380Z,0.30
2022-09-02T03:20:21.094Z,0.45
2022-09-02T03:22:48.330Z,0.30
2022-09-02T03:25:17.400Z,0.30
2022-09-02T03:27:47.320Z,0.30
2022-09-02T03:30:15.113Z,0.40
2022-09-02T03:32:41.866Z,0.30
2022-09-02T03:35:09.951Z,0.20
2022-09-02T03:37:36.690Z,0.17
2022-09-02T03:40:06.826Z,0.40
2022-09-02T03:42:33.308Z,0.20
2022-09-02T03:45:00.147Z,0.20
2022-09-02T03:47:29.028Z,0.30
2022-09-02T03:49:55.927Z,0.28
2022-09-02T03:52:22.256Z,0.20
2022-09-02T03:54:48.964Z,0.20
2022-09-02T03:57:15.943Z,0.20
2022-09-02T03:59:43.107Z,0.17
2022-09-02T04:02:09.631Z,0.20
2022-09-02T04:04:36.051Z,0.10
2022-09-02T04:07:02.466Z,0.30
2022-09-02T04:09:28.838Z,0.10
2022-09-02T04:11:55.284Z,0.20
2022-09-02T04:14:21.661Z,0.20
2022-09-02T04:16:48.149Z,0.10
2022-09-02T04:19:14.626Z,0.50
2022-09-02T04:21:41.823Z,0.20
2022-09-02T04:24:09.458Z,0.20
2022-09-02T04:26:36.305Z,0.30
2022-09-02T04:29:09.341Z,0.20
2022-09-02T04:31:35.925Z,0.30
2022-09-02T04:34:02.666Z,0.20
2022-09-02T04:36:30.894Z,0.20
2022-09-02T04:38:58.070Z,0.22
2022-09-02T04:41:26.133Z,0.20
2022-09-02T04:43:54.477Z,0.40
2022-09-02T04:46:28.069Z,0.20
2022-09-02T04:49:01.472Z,0.10
2022-09-02T04:51:27.913Z,0.20
2022-09-02T04:53:54.731Z,0.20
2022-09-02T04:56:24.262Z,0.20
2022-09-02T04:58:51.779Z,0.10
2022-09-02T05:01:21.014Z,0.20
2022-09-02T05:03:47.924Z,0.13
2022-09-02T05:06:16.874Z,0.20
2022-09-02T05:08:43.652Z,0.20
2022-09-02T05:11:11.396Z,0.10
2022-09-02T05:13:37.793Z,0.20
2022-09-02T05:16:04.224Z,0.10
2022-09-02T05:18:31.199Z,0.20
2022-09-02T05:20:57.760Z,0.10
2022-09-02T05:23:24.136Z,0.10
2022-09-02T05:25:50.752Z,0.20
2022-09-02T05:28:17.148Z,0.20
2022-09-02T05:30:43.707Z,0.10
2022-09-02T05:33:10.514Z,0.10
2022-09-02T05:35:42.178Z,0.10
2022-09-02T05:38:12.828Z,0.10
2022-09-02T05:40:39.471Z,0.20
2022-09-02T05:43:06.779Z,0.13
2022-09-02T05:45:34.251Z,0.15
2022-09-02T05:48:20.710Z,0.10
2022-09-02T05:50:47.118Z,0.10
2022-09-02T05:53:16.623Z,0.10
2022-09-02T05:55:43.072Z,0.10
2022-09-02T05:58:09.424Z,0.17
2022-09-02T06:00:35.754Z,0.10
2022-09-02T06:03:02.159Z,0.00
2022-09-02T06:05:28.622Z,0.03
2022-09-02T06:07:54.938Z,0.10
2022-09-02T06:10:21.432Z,0.10
2022-09-02T06:12:47.759Z,0.10
2022-09-02T06:15:14.905Z,0.20
2022-09-02T06:17:41.723Z,0.10
2022-09-02T06:20:08.355Z,0.10
2022-09-02T06:22:36.322Z,0.10
2022-09-02T06:25:02.861Z,0.20
2022-09-02T06:27:29.945Z,0.10
2022-09-02T06:29:56.273Z,0.20
2022-09-02T06:32:22.686Z,0.10
2022-09-02T06:34:49.013Z,0.20
2022-09-02T06:37:15.359Z,0.20
2022-09-02T06:39:44.890Z,0.20
2022-09-02T06:42:11.291Z,0.10
2022-09-02T06:44:38.075Z,0.10
2022-09-02T06:47:04.486Z,0.20
2022-09-02T06:49:30.891Z,0.20
2022-09-02T06:51:57.422Z,0.20
2022-09-02T06:54:24.023Z,0.17
2022-09-02T06:56:51.357Z,0.32
2022-09-02T06:59:19.092Z,0.20
2022-09-02T07:01:46.418Z,0.20
2022-09-02T07:04:31.293Z,0.13
2022-09-02T07:06:57.896Z,0.10
2022-09-02T07:09:31.043Z,0.20
2022-09-02T07:12:02.160Z,0.20
2022-09-02T07:14:30.884Z,0.20
2022-09-02T07:17:00.376Z,0.20
2022-09-02T07:19:27.095Z,0.20
2022-09-02T07:21:53.985Z,0.20
2022-09-02T07:24:20.732Z,0.20
2022-09-02T07:26:47.484Z,0.20
2022-09-02T07:29:14.184Z,0.20
2022-09-02T07:31:42.109Z,0.22
2022-09-02T07:34:09.950Z,0.28
2022-09-02T07:36:36.583Z,0.90
2022-09-02T07:39:04.925Z,0.73
2022-09-02T07:41:31.290Z,0.35
2022-09-02T07:43:59.713Z,0.38
2022-09-02T07:46:26.592Z,0.30
2022-09-02T07:48:52.983Z,0.35
2022-09-02T07:51:19.682Z,0.30
2022-09-02T07:53:46.454Z,0.40
2022-09-02T07:56:13.662Z,0.30
2022-09-02T07:58:41.378Z,0.30
2022-09-02T08:01:08.226Z,0.13
2022-09-02T08:03:35.511Z,0.35
2022-09-02T08:06:02.910Z,0.20
2022-09-02T08:08:29.334Z,0.13
2022-09-02T08:10:55.735Z,0.30
2022-09-02T08:13:22.191Z,0.50
2022-09-02T08:15:54.337Z,0.60
2022-09-02T08:18:22.297Z,0.70
2022-09-02T08:20:49.284Z,1.10
2022-09-02T08:23:25.687Z,0.70
2022-09-02T08:26:00.580Z,0.82
2022-09-02T08:28:28.058Z,1.35
2022-09-02T08:30:59.351Z,1.25
2022-09-02T08:33:26.234Z,0.95
2022-09-02T08:35:52.662Z,0.80
2022-09-02T08:38:19.068Z,0.70
2022-09-02T08:40:45.579Z,0.47
2022-09-02T08:43:25.902Z,0.98
2022-09-02T08:45:54.276Z,1.27
2022-09-02T08:48:23.076Z,1.50
2022-09-02T08:50:52.573Z,1.10
2022-09-02T08:53:32.312Z,1.30
2022-09-02T08:55:59.456Z,1.33
2022-09-02T08:58:28.795Z,1.20
2022-09-02T09:01:04.473Z,0.70
2022-09-02T09:03:37.401Z,1.20
2022-09-02T09:06:12.356Z,0.90
2022-09-02T09:08:45.521Z,0.90
2022-09-02T09:11:29.016Z,1.17
2022-09-02T09:13:58.702Z,0.90
2022-09-02T09:16:43.608Z,1.40
2022-09-02T09:19:22.318Z,1.00
2022-09-02T09:21:48.786Z,1.23
2022-09-02T09:24:21.698Z,1.48
2022-09-02T09:26:48.072Z,1.08
2022-09-02T09:29:14.496Z,1.50
2022-09-02T09:31:41.626Z,0.90
2022-09-02T09:34:09.315Z,0.95
2022-09-02T09:36:41.596Z,1.50
2022-09-02T09:39:28.193Z,1.50
2022-09-02T09:42:04.363Z,0.98
2022-09-02T09:44:30.669Z,1.10
2022-09-02T09:47:05.721Z,1.10
2022-09-02T09:49:33.406Z,0.63
2022-09-02T09:52:00.316Z,1.00
2022-09-02T09:54:28.029Z,1.30
2022-09-02T09:56:55.064Z,1.33
2022-09-02T09:59:36.143Z,0.82
2022-09-02T10:02:02.650Z,0.70
2022-09-02T10:04:46.824Z,0.57
2022-09-02T10:07:16.226Z,0.57
2022-09-02T10:09:43.332Z,0.77
2022-09-02T10:12:12.025Z,0.50
2022-09-02T10:14:48.544Z,1.20
2022-09-02T10:17:33.700Z,1.52
2022-09-02T10:20:19.052Z,1.20
2022-09-02T10:23:04.792Z,1.40
2022-09-02T10:26:00.435Z,1.40
2022-09-02T10:28:29.629Z,1.30
2022-09-02T10:31:08.998Z,1.40
2022-09-02T10:33:40.910Z,1.23
2022-09-02T10:36:08.776Z,1.08
2022-09-02T10:38:38.363Z,1.10
2022-09-02T10:41:17.865Z,1.17
2022-09-02T10:43:57.444Z,1.25
2022-09-02T10:46:24.678Z,1.27
2022-09-02T10:49:05.097Z,0.82
2022-09-02T10:51:31.406Z,1.00
2022-09-02T10:54:10.992Z,1.20
2022-09-02T10:56:51.293Z,1.10
2022-09-02T10:59:26.590Z,0.90
2022-09-02T11:01:57.329Z,0.90
2022-09-02T11:04:28.040Z,1.27
2022-09-02T11:07:03.775Z,0.90
2022-09-02T11:09:35.093Z,1.00
2022-09-02T11:12:16.710Z,1.10
2022-09-02T11:14:54.963Z,1.50
2022-09-02T11:17:28.569Z,0.80
2022-09-02T11:19:54.967Z,1.42
2022-09-02T11:22:27.383Z,0.90
2022-09-02T11:25:06.062Z,1.25
2022-09-02T11:27:42.677Z,1.00
2022-09-02T11:30:18.179Z,1.20
2022-09-02T11:33:01.306Z,1.30
2022-09-02T11:35:29.353Z,1.40
2022-09-02T11:38:05.364Z,1.10
2022-09-02T11:40:43.907Z,1.27
2022-09-02T11:43:28.003Z,1.10
2022-09-02T11:46:00.947Z,0.80
2022-09-02T11:48:46.516Z,0.55
2022-09-02T11:51:16.667Z,0.70
2022-09-02T11:53:45.124Z,1.25
2022-09-02T11:56:12.053Z,1.10
2022-09-02T11:58:46.776Z,1.10
2022-09-02T12:01:16.033Z,1.10
2022-09-02T12:04:15.830Z,1.10
2022-09-02T12:06:30.960Z,0.95
2022-09-02T12:08:58.850Z,1.00
2022-09-02T12:11:38.172Z,0.70
2022-09-02T12:14:07.970Z,1.08
2022-09-02T12:16:41.736Z,1.15
2022-09-02T12:19:11.686Z,1.10
2022-09-02T12:21:59.965Z,1.27
2022-09-02T12:24:26.399Z,0.80
2022-09-02T12:26:52.799Z,1.00
2022-09-02T12:29:19.208Z,1.10
2022-09-02T12:31:47.668Z,0.98
2022-09-02T12:34:20.892Z,0.80
2022-09-02T12:36:48.767Z,1.38
2022-09-02T12:39:24.328Z,1.00
2022-09-02T12:42:12.695Z,1.20
2022-09-02T12:44:51.369Z,0.90
2022-09-02T12:47:22.051Z,0.80
2022-09-02T12:49:48.580Z,1.20
2022-09-02T12:52:33.944Z,1.20
2022-09-02T12:55:19.245Z,1.08
2022-09-02T12:57:53.245Z,0.80
2022-09-02T13:00:26.310Z,0.40
2022-09-02T13:03:11.387Z,0.60
2022-09-02T13:05:47.419Z,1.00
2022-09-02T13:08:32.679Z,1.10
2022-09-02T13:11:29.285Z,0.60
2022-09-02T13:14:14.965Z,0.70
2022-09-02T13:16:44.147Z,1.30
2022-09-02T13:19:27.638Z,1.83
2022-09-02T13:22:01.490Z,1.05
2022-09-02T13:24:46.365Z,1.00
2022-09-02T13:27:24.671Z,0.90
2022-09-02T13:30:09.929Z,0.70
2022-09-02T13:32:37.442Z,0.68
2022-09-02T13:35:06.397Z,1.00
2022-09-02T13:37:43.553Z,1.10
2022-09-02T13:40:19.429Z,1.30
2022-09-02T13:42:49.838Z,0.80
2022-09-02T13:45:18.631Z,0.77
2022-09-02T13:47:46.726Z,0.50
2022-09-02T13:50:14.921Z,0.30
2022-09-02T13:55:29.069Z,0.82
2022-09-02T13:57:57.482Z,1.42
2022-09-02T14:00:28.415Z,0.60
2022-09-02T14:02:59.846Z,0.70
2022-09-02T14:07:54.383Z,0.52
2022-09-02T14:10:22.747Z,0.70
2022-09-02T14:12:49.595Z,0.47
2022-09-02T14:15:16.870Z,0.82
2022-09-02T14:17:43.262Z,1.00
2022-09-02T14:20:09.708Z,1.00
2022-09-02T14:22:36.235Z,0.77
2022-09-02T14:25:15.818Z,0.80
2022-09-02T14:27:52.647Z,1.15
2022-09-02T14:30:28.427Z,0.80
2022-09-02T14:33:13.687Z,1.10
2022-09-02T14:35:40.156Z,0.70
2022-09-02T14:38:06.498Z,1.00
2022-09-02T14:40:34.523Z,0.98
2022-09-02T14:43:01.417Z,0.90
2022-09-02T14:45:29.512Z,0.50
2022-09-02T14:47:56.989Z,1.00
2022-09-02T14:50:25.304Z,1.17
2022-09-02T14:52:55.817Z,1.20
2022-09-02T14:55:40.455Z,0.80
2022-09-02T14:58:06.801Z,0.68
2022-09-02T15:00:34.683Z,1.25
2022-09-02T15:03:01.856Z,1.25
2022-09-02T15:05:28.919Z,0.90
2022-09-02T15:07:55.378Z,0.47
2022-09-02T15:10:22.180Z,0.80
2022-09-02T15:12:48.475Z,0.90
2022-09-02T15:15:14.854Z,0.60
2022-09-02T15:17:41.329Z,1.10
2022-09-02T15:20:08.777Z,1.00
2022-09-02T15:22:38.418Z,0.60
2022-09-02T15:25:08.039Z,0.47
2022-09-02T15:27:35.104Z,1.10
2022-09-02T15:30:01.454Z,0.93
2022-09-02T15:32:28.384Z,0.65
2022-09-02T15:34:54.740Z,0.50
2022-09-02T15:37:21.131Z,0.70
2022-09-02T15:39:48.774Z,0.40
2022-09-02T15:42:15.221Z,0.45
2022-09-02T15:44:41.915Z,0.20
2022-09-02T15:47:08.374Z,0.70
2022-09-02T15:49:34.740Z,0.88
2022-09-02T15:52:02.692Z,0.93
2022-09-02T15:54:29.683Z,0.95
2022-09-02T15:56:57.070Z,0.70
2022-09-02T15:59:23.582Z,1.05
2022-09-02T16:01:51.126Z,1.00
2022-09-02T16:04:17.638Z,1.00
2022-09-02T16:06:45.168Z,0.90
2022-09-02T16:09:12.690Z,1.00
2022-09-02T16:11:39.892Z,0.90
2022-09-02T16:14:06.658Z,0.65
2022-09-02T16:16:33.580Z,0.73
2022-09-02T16:19:00.007Z,0.93
2022-09-02T16:21:26.410Z,1.17
2022-09-02T16:23:52.806Z,0.70
2022-09-02T16:26:26.665Z,1.02
2022-09-02T16:28:55.762Z,0.60
2022-09-02T16:31:24.163Z,0.45
2022-09-02T16:33:54.878Z,0.70
2022-09-02T16:36:21.459Z,0.40
2022-09-02T16:38:47.800Z,0.70
2022-09-02T16:41:25.555Z,0.70
2022-09-02T16:43:52.214Z,0.60
2022-09-02T16:46:18.600Z,0.70
2022-09-02T16:48:45.455Z,0.40
2022-09-02T16:51:11.988Z,0.50
2022-09-02T16:53:38.733Z,0.40
2022-09-02T16:56:05.195Z,0.40
2022-09-02T16:58:31.628Z,0.60
2022-09-02T17:00:58.064Z,0.40
2022-09-02T17:03:24.600Z,0.70
2022-09-02T17:05:51.053Z,0.50
2022-09-02T17:08:17.639Z,0.50
2022-09-02T17:10:44.268Z,0.50
2022-09-02T17:13:10.629Z,0.30
2022-09-02T17:15:36.987Z,0.20
2022-09-02T17:18:03.729Z,0.28
2022-09-02T17:20:30.094Z,0.60
2022-09-02T17:22:56.788Z,0.68
2022-09-02T17:25:23.198Z,0.70
2022-09-02T17:27:49.600Z,0.60
2022-09-02T17:30:16.284Z,0.55
2022-09-02T17:32:42.750Z,0.60
2022-09-02T17:35:09.713Z,0.80
2022-09-02T17:37:37.341Z,0.57
2022-09-02T17:40:05.532Z,0.50
2022-09-02T17:42:32.089Z,0.75
2022-09-02T17:44:58.459Z,0.70
2022-09-02T17:47:24.892Z,0.70
2022-09-02T17:49:51.436Z,0.68
2022-09-02T17:52:19.033Z,0.30
2022-09-02T17:54:48.007Z,0.30
2022-09-02T17:57:17.363Z,0.50
2022-09-02T18:00:10.382Z,0.30
2022-09-02T18:02:43.028Z,0.52
2022-09-02T18:05:18.785Z,0.30
2022-09-02T18:07:45.113Z,0.30
2022-09-02T18:10:14.645Z,0.10
2022-09-02T18:12:42.910Z,0.20
2022-09-02T18:15:11.790Z,0.20
2022-09-02T18:17:46.496Z,0.10
2022-09-02T18:20:16.772Z,0.00
2022-09-02T18:22:45.908Z,0.10
2022-09-02T18:25:24.383Z,0.10
2022-09-02T18:27:52.506Z,0.20
2022-09-02T18:30:25.596Z,0.10
2022-09-02T18:33:02.864Z,0.10
2022-09-02T18:35:29.389Z,0.10
2022-09-02T18:38:11.134Z,0.10
2022-09-02T18:40:45.749Z,0.10
2022-09-02T18:43:31.142Z,0.10
2022-09-02T18:46:00.939Z,0.00
2022-09-02T18:48:35.915Z,0.20
2022-09-02T18:51:24.211Z,0.15
2022-09-02T18:53:54.787Z,0.10
2022-09-02T18:56:24.350Z,0.10
2022-09-02T18:58:57.033Z,0.10
2022-09-02T19:01:30.465Z,0.10
2022-09-02T19:03:59.948Z,0.20
2022-09-02T19:06:30.739Z,0.10
2022-09-02T19:08:59.331Z,0.10
2022-09-02T19:11:26.006Z,0.10
2022-09-02T19:13:56.105Z,0.10
2022-09-02T19:16:24.851Z,0.22
2022-09-02T19:18:51.408Z,0.20
2022-09-02T19:21:19.915Z,0.05
2022-09-02T19:23:47.821Z,0.10
2022-09-02T19:26:14.243Z,0.10
2022-09-02T19:28:41.127Z,0.10
2022-09-02T19:31:10.139Z,0.10
2022-09-02T19:33:42.558Z,0.10
2022-09-02T19:36:08.967Z,0.10
2022-09-02T19:38:35.353Z,0.00
2022-09-02T19:41:02.014Z,0.30
2022-09-02T19:43:29.101Z,0.10
2022-09-02T19:45:55.967Z,0.10
2022-09-02T19:48:22.672Z,0.10
2022-09-02T19:50:49.207Z,0.10
2022-09-02T19:53:20.680Z,0.10
2022-09-02T19:55:47.120Z,0.13
2022-09-02T19:58:13.910Z,0.10
2022-09-02T20:00:42.373Z,0.00
2022-09-02T20:03:09.414Z,0.20
2022-09-02T20:05:38.690Z,0.20
2022-09-02T20:08:05.396Z,0.20
2022-09-02T20:10:31.772Z,0.20
2022-09-02T20:12:58.993Z,0.20
2022-09-02T20:15:25.313Z,0.10
2022-09-02T20:17:51.805Z,0.20
2022-09-02T20:20:20.239Z,0.20
2022-09-02T20:22:47.436Z,0.10
2022-09-02T20:25:14.464Z,0.20
2022-09-02T20:28:01.911Z,0.10
2022-09-02T20:30:30.558Z,0.10
2022-09-02T20:33:08.157Z,0.10
2022-09-02T20:35:47.145Z,0.20
2022-09-02T20:38:24.498Z,0.30
2022-09-02T20:41:01.407Z,0.30
2022-09-02T20:43:40.959Z,0.35
2022-09-02T20:46:07.373Z,0.45
2022-09-02T20:48:33.673Z,0.30
2022-09-02T20:51:05.474Z,0.20
2022-09-02T20:53:41.089Z,0.30
2022-09-02T20:56:16.949Z,0.28
2022-09-02T20:58:43.286Z,0.25
2022-09-02T21:01:24.068Z,0.40
2022-09-02T21:03:50.455Z,0.28
2022-09-02T21:06:17.129Z,0.20
2022-09-02T21:08:53.246Z,0.20
2022-09-02T21:11:21.612Z,0.20
2022-09-02T21:14:00.586Z,0.10
2022-09-02T21:16:32.250Z,0.15
2022-09-02T21:19:17.193Z,0.30
2022-09-02T21:21:49.129Z,0.20
2022-09-02T21:26:48.989Z,0.17
2022-09-02T21:29:19.198Z,0.10
2022-09-02T21:31:52.180Z,0.20
2022-09-02T21:34:25.380Z,0.10
2022-09-02T21:36:53.849Z,0.10
2022-09-02T21:39:20.247Z,0.10
2022-09-02T21:41:59.678Z,0.10
2022-09-02T21:44:39.224Z,0.10
2022-09-02T21:47:09.599Z,0.20
2022-09-02T21:49:53.717Z,0.15
2022-09-02T21:52:29.135Z,0.10
2022-09-02T21:55:01.820Z,0.10
2022-09-02T21:57:54.678Z,0.20
2022-09-02T22:00:21.889Z,0.20
2022-09-02T22:02:51.313Z,0.15
2022-09-02T22:05:17.639Z,0.17
2022-09-02T22:07:49.185Z,0.10
2022-09-02T22:10:31.796Z,0.10
2022-09-02T22:13:01.192Z,0.20
2022-09-02T22:15:34.703Z,0.20
2022-09-02T22:18:04.674Z,0.10
2022-09-02T22:20:32.899Z,0.20
2022-09-02T22:23:05.148Z,0.17
2022-09-02T22:25:33.732Z,0.38
2022-09-02T22:28:06.716Z,0.20
2022-09-02T22:30:35.200Z,0.20
2022-09-02T22:33:08.085Z,0.20
2022-09-02T22:35:41.438Z,0.30
2022-09-02T22:38:16.584Z,0.13
2022-09-02T22:40:45.360Z,0.28
2022-09-02T22:43:13.704Z,0.25
2022-09-02T22:46:04.524Z,0.30
2022-09-02T22:48:54.287Z,0.30
2022-09-02T22:51:45.121Z,0.20
2022-09-02T22:54:11.452Z,0.20
2022-09-02T22:56:58.127Z,0.30
2022-09-02T22:59:37.925Z,0.30
2022-09-02T23:02:13.327Z,0.20
2022-09-02T23:04:48.703Z,0.30
2022-09-02T23:07:15.095Z,0.20
2022-09-02T23:09:41.509Z,0.25
2022-09-02T23:12:15.133Z,0.25
2022-09-02T23:14:44.605Z,0.10
2022-09-02T23:17:20.361Z,0.20
2022-09-02T23:19:56.394Z,0.10
2022-09-02T23:22:34.031Z,0.20
2022-09-02T23:25:15.490Z,0.20
2022-09-02T23:27:51.651Z,0.20
2022-09-02T23:30:18.223Z,0.13
2022-09-02T23:33:03.615Z,0.17
2022-09-02T23:35:33.763Z,0.10
2022-09-02T23:38:16.874Z,0.10
2022-09-02T23:40:45.010Z,0.10
2022-09-02T23:43:17.936Z,0.10
2022-09-02T23:45:47.612Z,0.10
2022-09-02T23:48:27.198Z,0.10
2022-09-02T23:50:56.314Z,0.10
2022-09-02T23:53:41.722Z,0.10
2022-09-02T23:56:33.483Z,0.17
2022-09-02T23:59:18.330Z,0.20
